sensor_id;sensor_type;location;lat;lon;timestamp;P1;durP1;ratioP1;P2;durP2;ratioP2
68247;SDS011;55064;49.636;12.164;2024-02-16T00:00:59;10.30;;;4.50;;
68247;SDS011;55064;49.636;12.164;2024-02-16T00:03:25;8.93;;;3.83;;
68247;SDS011;55064;49.636;12.164;2024-02-16T00:05:51;10.50;;;4.53;;
68247;SDS011;55064;49.636;12.164;2024-02-16T00:08:20;9.57;;;4.70;;
68247;SDS011;55064;49.636;12.164;2024-02-16T00:10:46;10.55;;;4.45;;
68247;SDS011;55064;49.636;12.164;2024-02-16T00:13:12;11.15;;;4.40;;
68247;SDS011;55064;49.636;12.164;2024-02-16T00:15:37;9.93;;;4.10;;
68247;SDS011;55064;49.636;12.164;2024-02-16T00:18:04;7.93;;;3.60;;
68247;SDS011;55064;49.636;12.164;2024-02-16T00:20:29;10.13;;;3.47;;
68247;SDS011;55064;49.636;12.164;2024-02-16T00:22:56;9.03;;;3.80;;
68247;SDS011;55064;49.636;12.164;2024-02-16T00:25:22;9.02;;;4.32;;
68247;SDS011;55064;49.636;12.164;2024-02-16T00:27:47;8.77;;;3.70;;
68247;SDS011;55064;49.636;12.164;2024-02-16T00:30:13;10.05;;;3.80;;
68247;SDS011;55064;49.636;12.164;2024-02-16T00:32:40;8.80;;;4.03;;
68247;SDS011;55064;49.636;12.164;2024-02-16T00:35:06;9.13;;;3.20;;
68247;SDS011;55064;49.636;12.164;2024-02-16T00:37:31;8.03;;;2.83;;
68247;SDS011;55064;49.636;12.164;2024-02-16T00:39:57;8.27;;;3.17;;
68247;SDS011;55064;49.636;12.164;2024-02-16T00:42:22;10.27;;;3.90;;
68247;SDS011;55064;49.636;12.164;2024-02-16T00:44:48;14.70;;;5.40;;
68247;SDS011;55064;49.636;12.164;2024-02-16T00:47:14;16.90;;;5.85;;
68247;SDS011;55064;49.636;12.164;2024-02-16T00:49:41;12.85;;;4.85;;
68247;SDS011;55064;49.636;12.164;2024-02-16T00:52:07;13.60;;;4.87;;
68247;SDS011;55064;49.636;12.164;2024-02-16T00:54:32;11.82;;;4.40;;
68247;SDS011;55064;49.636;12.164;2024-02-16T00:56:57;9.77;;;3.40;;
68247;SDS011;55064;49.636;12.164;2024-02-16T00:59:27;10.23;;;3.95;;
68247;SDS011;55064;49.636;12.164;2024-02-16T01:01:52;10.97;;;3.87;;
68247;SDS011;55064;49.636;12.164;2024-02-16T01:04:18;13.83;;;4.60;;
68247;SDS011;55064;49.636;12.164;2024-02-16T01:06:43;11.35;;;4.03;;
68247;SDS011;55064;49.636;12.164;2024-02-16T01:09:09;16.53;;;4.50;;
68247;SDS011;55064;49.636;12.164;2024-02-16T01:11:34;13.13;;;4.63;;
68247;SDS011;55064;49.636;12.164;2024-02-16T01:13:59;11.27;;;4.50;;
68247;SDS011;55064;49.636;12.164;2024-02-16T01:16:25;13.43;;;5.37;;
68247;SDS011;55064;49.636;12.164;2024-02-16T01:18:50;12.90;;;6.10;;
68247;SDS011;55064;49.636;12.164;2024-02-16T01:21:15;12.00;;;5.35;;
68247;SDS011;55064;49.636;12.164;2024-02-16T01:23:41;11.87;;;5.43;;
68247;SDS011;55064;49.636;12.164;2024-02-16T01:26:06;12.43;;;5.80;;
68247;SDS011;55064;49.636;12.164;2024-02-16T01:28:32;12.03;;;5.53;;
68247;SDS011;55064;49.636;12.164;2024-02-16T01:30:57;10.30;;;4.93;;
68247;SDS011;55064;49.636;12.164;2024-02-16T01:33:22;11.93;;;5.27;;
68247;SDS011;55064;49.636;12.164;2024-02-16T01:35:48;11.90;;;5.77;;
68247;SDS011;55064;49.636;12.164;2024-02-16T01:38:13;11.70;;;5.40;;
68247;SDS011;55064;49.636;12.164;2024-02-16T01:40:39;12.27;;;5.63;;
68247;SDS011;55064;49.636;12.164;2024-02-16T01:43:05;13.57;;;5.80;;
68247;SDS011;55064;49.636;12.164;2024-02-16T01:45:30;16.53;;;7.00;;
68247;SDS011;55064;49.636;12.164;2024-02-16T01:47:56;16.07;;;7.20;;
68247;SDS011;55064;49.636;12.164;2024-02-16T01:50:21;17.67;;;7.33;;
68247;SDS011;55064;49.636;12.164;2024-02-16T01:52:47;16.83;;;6.90;;
68247;SDS011;55064;49.636;12.164;2024-02-16T01:55:13;14.00;;;6.28;;
68247;SDS011;55064;49.636;12.164;2024-02-16T01:57:41;11.75;;;5.70;;
68247;SDS011;55064;49.636;12.164;2024-02-16T02:00:08;10.35;;;5.20;;
68247;SDS011;55064;49.636;12.164;2024-02-16T02:02:34;11.57;;;5.37;;
68247;SDS011;55064;49.636;12.164;2024-02-16T02:05:00;11.93;;;4.93;;
68247;SDS011;55064;49.636;12.164;2024-02-16T02:07:26;12.93;;;5.80;;
68247;SDS011;55064;49.636;12.164;2024-02-16T02:09:52;11.03;;;5.33;;
68247;SDS011;55064;49.636;12.164;2024-02-16T02:12:18;11.63;;;5.53;;
68247;SDS011;55064;49.636;12.164;2024-02-16T02:14:43;9.73;;;5.27;;
68247;SDS011;55064;49.636;12.164;2024-02-16T02:17:09;11.13;;;5.07;;
68247;SDS011;55064;49.636;12.164;2024-02-16T02:19:34;10.70;;;4.80;;
68247;SDS011;55064;49.636;12.164;2024-02-16T02:22:00;11.07;;;5.40;;
68247;SDS011;55064;49.636;12.164;2024-02-16T02:24:26;9.25;;;4.82;;
68247;SDS011;55064;49.636;12.164;2024-02-16T02:26:51;11.10;;;4.87;;
68247;SDS011;55064;49.636;12.164;2024-02-16T02:29:17;9.85;;;4.68;;
68247;SDS011;55064;49.636;12.164;2024-02-16T02:31:42;10.70;;;5.10;;
68247;SDS011;55064;49.636;12.164;2024-02-16T02:34:07;10.17;;;4.50;;
68247;SDS011;55064;49.636;12.164;2024-02-16T02:36:33;10.77;;;5.00;;
68247;SDS011;55064;49.636;12.164;2024-02-16T02:38:58;10.53;;;4.70;;
68247;SDS011;55064;49.636;12.164;2024-02-16T02:41:24;9.50;;;4.63;;
68247;SDS011;55064;49.636;12.164;2024-02-16T02:43:51;8.63;;;4.07;;
68247;SDS011;55064;49.636;12.164;2024-02-16T02:46:17;10.57;;;4.40;;
68247;SDS011;55064;49.636;12.164;2024-02-16T02:48:46;11.85;;;4.53;;
68247;SDS011;55064;49.636;12.164;2024-02-16T02:51:11;9.40;;;4.10;;
68247;SDS011;55064;49.636;12.164;2024-02-16T02:53:37;8.77;;;3.92;;
68247;SDS011;55064;49.636;12.164;2024-02-16T02:56:02;8.67;;;4.27;;
68247;SDS011;55064;49.636;12.164;2024-02-16T02:58:29;8.80;;;4.13;;
68247;SDS011;55064;49.636;12.164;2024-02-16T03:00:54;11.50;;;4.33;;
68247;SDS011;55064;49.636;12.164;2024-02-16T03:03:20;8.32;;;4.22;;
68247;SDS011;55064;49.636;12.164;2024-02-16T03:05:46;8.95;;;4.15;;
68247;SDS011;55064;49.636;12.164;2024-02-16T03:08:12;8.17;;;3.80;;
68247;SDS011;55064;49.636;12.164;2024-02-16T03:10:37;8.67;;;3.60;;
68247;SDS011;55064;49.636;12.164;2024-02-16T03:13:03;7.70;;;3.67;;
68247;SDS011;55064;49.636;12.164;2024-02-16T03:15:29;7.47;;;3.20;;
68247;SDS011;55064;49.636;12.164;2024-02-16T03:17:57;8.80;;;3.10;;
68247;SDS011;55064;49.636;12.164;2024-02-16T03:20:23;8.53;;;3.47;;
68247;SDS011;55064;49.636;12.164;2024-02-16T03:22:48;7.80;;;3.47;;
68247;SDS011;55064;49.636;12.164;2024-02-16T03:25:14;7.68;;;3.22;;
68247;SDS011;55064;49.636;12.164;2024-02-16T03:27:39;7.87;;;3.80;;
68247;SDS011;55064;49.636;12.164;2024-02-16T03:30:06;10.60;;;4.70;;
68247;SDS011;55064;49.636;12.164;2024-02-16T03:32:33;10.13;;;4.88;;
68247;SDS011;55064;49.636;12.164;2024-02-16T03:34:58;11.37;;;5.03;;
68247;SDS011;55064;49.636;12.164;2024-02-16T03:37:24;12.37;;;4.73;;
68247;SDS011;55064;49.636;12.164;2024-02-16T03:39:49;10.52;;;4.40;;
68247;SDS011;55064;49.636;12.164;2024-02-16T03:42:15;9.03;;;4.60;;
68247;SDS011;55064;49.636;12.164;2024-02-16T03:44:42;9.00;;;4.20;;
68247;SDS011;55064;49.636;12.164;2024-02-16T03:47:08;9.52;;;4.22;;
68247;SDS011;55064;49.636;12.164;2024-02-16T03:49:34;10.73;;;4.40;;
68247;SDS011;55064;49.636;12.164;2024-02-16T03:51:59;9.40;;;3.90;;
68247;SDS011;55064;49.636;12.164;2024-02-16T03:54:24;7.93;;;3.60;;
68247;SDS011;55064;49.636;12.164;2024-02-16T03:56:52;9.23;;;4.90;;
68247;SDS011;55064;49.636;12.164;2024-02-16T03:59:21;8.20;;;4.20;;
68247;SDS011;55064;49.636;12.164;2024-02-16T04:01:46;7.80;;;3.90;;
68247;SDS011;55064;49.636;12.164;2024-02-16T04:04:12;8.20;;;3.43;;
68247;SDS011;55064;49.636;12.164;2024-02-16T04:06:38;7.50;;;3.70;;
68247;SDS011;55064;49.636;12.164;2024-02-16T04:09:04;8.23;;;3.53;;
68247;SDS011;55064;49.636;12.164;2024-02-16T04:11:33;7.93;;;3.53;;
68247;SDS011;55064;49.636;12.164;2024-02-16T04:13:59;8.13;;;3.55;;
68247;SDS011;55064;49.636;12.164;2024-02-16T04:16:24;7.77;;;3.47;;
68247;SDS011;55064;49.636;12.164;2024-02-16T04:18:50;9.73;;;3.70;;
68247;SDS011;55064;49.636;12.164;2024-02-16T04:21:16;7.87;;;3.30;;
68247;SDS011;55064;49.636;12.164;2024-02-16T04:23:42;7.43;;;3.35;;
68247;SDS011;55064;49.636;12.164;2024-02-16T04:26:07;8.00;;;3.50;;
68247;SDS011;55064;49.636;12.164;2024-02-16T04:28:32;7.20;;;3.20;;
68247;SDS011;55064;49.636;12.164;2024-02-16T04:30:58;8.02;;;3.35;;
68247;SDS011;55064;49.636;12.164;2024-02-16T04:33:23;7.60;;;3.43;;
68247;SDS011;55064;49.636;12.164;2024-02-16T04:35:49;7.83;;;3.70;;
68247;SDS011;55064;49.636;12.164;2024-02-16T04:38:15;7.53;;;3.30;;
68247;SDS011;55064;49.636;12.164;2024-02-16T04:40:42;7.97;;;3.45;;
68247;SDS011;55064;49.636;12.164;2024-02-16T04:43:07;7.73;;;3.67;;
68247;SDS011;55064;49.636;12.164;2024-02-16T04:45:32;7.50;;;3.53;;
68247;SDS011;55064;49.636;12.164;2024-02-16T04:48:01;7.67;;;3.47;;
68247;SDS011;55064;49.636;12.164;2024-02-16T04:50:28;7.93;;;4.00;;
68247;SDS011;55064;49.636;12.164;2024-02-16T04:52:53;7.60;;;3.40;;
68247;SDS011;55064;49.636;12.164;2024-02-16T04:55:18;8.20;;;3.57;;
68247;SDS011;55064;49.636;12.164;2024-02-16T04:57:44;8.23;;;3.87;;
68247;SDS011;55064;49.636;12.164;2024-02-16T05:00:09;10.03;;;4.13;;
68247;SDS011;55064;49.636;12.164;2024-02-16T05:02:35;9.38;;;4.10;;
68247;SDS011;55064;49.636;12.164;2024-02-16T05:05:00;7.30;;;3.67;;
68247;SDS011;55064;49.636;12.164;2024-02-16T05:07:26;8.27;;;4.07;;
68247;SDS011;55064;49.636;12.164;2024-02-16T05:09:51;9.27;;;3.60;;
68247;SDS011;55064;49.636;12.164;2024-02-16T05:12:21;8.63;;;3.53;;
68247;SDS011;55064;49.636;12.164;2024-02-16T05:14:50;8.48;;;3.88;;
68247;SDS011;55064;49.636;12.164;2024-02-16T05:17:15;8.50;;;3.58;;
68247;SDS011;55064;49.636;12.164;2024-02-16T05:19:41;9.17;;;3.50;;
68247;SDS011;55064;49.636;12.164;2024-02-16T05:22:06;7.70;;;3.70;;
68247;SDS011;55064;49.636;12.164;2024-02-16T05:24:31;8.03;;;3.70;;
68247;SDS011;55064;49.636;12.164;2024-02-16T05:26:57;9.10;;;4.17;;
68247;SDS011;55064;49.636;12.164;2024-02-16T05:29:23;8.25;;;4.05;;
68247;SDS011;55064;49.636;12.164;2024-02-16T05:31:50;8.52;;;4.28;;
68247;SDS011;55064;49.636;12.164;2024-02-16T05:34:16;14.93;;;7.37;;
68247;SDS011;55064;49.636;12.164;2024-02-16T05:36:42;12.63;;;6.30;;
68247;SDS011;55064;49.636;12.164;2024-02-16T05:39:07;11.33;;;5.37;;
68247;SDS011;55064;49.636;12.164;2024-02-16T05:41:45;10.90;;;4.85;;
68247;SDS011;55064;49.636;12.164;2024-02-16T05:44:11;10.02;;;5.20;;
68247;SDS011;55064;49.636;12.164;2024-02-16T05:46:36;10.87;;;5.30;;
68247;SDS011;55064;49.636;12.164;2024-02-16T05:49:03;11.05;;;5.20;;
68247;SDS011;55064;49.636;12.164;2024-02-16T05:51:36;9.97;;;4.73;;
68247;SDS011;55064;49.636;12.164;2024-02-16T05:54:02;8.82;;;4.28;;
68247;SDS011;55064;49.636;12.164;2024-02-16T05:56:28;12.10;;;5.68;;
68247;SDS011;55064;49.636;12.164;2024-02-16T05:58:53;11.80;;;5.67;;
68247;SDS011;55064;49.636;12.164;2024-02-16T06:01:19;11.20;;;4.82;;
68247;SDS011;55064;49.636;12.164;2024-02-16T06:03:44;9.63;;;4.80;;
68247;SDS011;55064;49.636;12.164;2024-02-16T06:06:09;10.13;;;4.23;;
68247;SDS011;55064;49.636;12.164;2024-02-16T06:08:35;8.87;;;4.10;;
68247;SDS011;55064;49.636;12.164;2024-02-16T06:11:00;8.63;;;3.70;;
68247;SDS011;55064;49.636;12.164;2024-02-16T06:13:27;8.50;;;4.00;;
68247;SDS011;55064;49.636;12.164;2024-02-16T06:15:54;9.35;;;4.18;;
68247;SDS011;55064;49.636;12.164;2024-02-16T06:18:19;13.63;;;3.90;;
68247;SDS011;55064;49.636;12.164;2024-02-16T06:20:45;8.70;;;3.93;;
68247;SDS011;55064;49.636;12.164;2024-02-16T06:23:11;9.27;;;3.85;;
68247;SDS011;55064;49.636;12.164;2024-02-16T06:25:36;7.90;;;3.77;;
68247;SDS011;55064;49.636;12.164;2024-02-16T06:28:01;9.77;;;4.23;;
68247;SDS011;55064;49.636;12.164;2024-02-16T06:30:27;8.60;;;3.97;;
68247;SDS011;55064;49.636;12.164;2024-02-16T06:32:53;8.67;;;3.83;;
68247;SDS011;55064;49.636;12.164;2024-02-16T06:35:20;11.52;;;6.20;;
68247;SDS011;55064;49.636;12.164;2024-02-16T06:37:45;9.60;;;4.43;;
68247;SDS011;55064;49.636;12.164;2024-02-16T06:40:11;10.15;;;4.70;;
68247;SDS011;55064;49.636;12.164;2024-02-16T06:42:37;9.07;;;4.70;;
68247;SDS011;55064;49.636;12.164;2024-02-16T06:45:03;9.88;;;4.65;;
68247;SDS011;55064;49.636;12.164;2024-02-16T06:47:30;9.52;;;4.53;;
68247;SDS011;55064;49.636;12.164;2024-02-16T06:49:56;10.18;;;4.57;;
68247;SDS011;55064;49.636;12.164;2024-02-16T06:52:21;13.73;;;6.30;;
68247;SDS011;55064;49.636;12.164;2024-02-16T06:54:47;15.07;;;6.80;;
68247;SDS011;55064;49.636;12.164;2024-02-16T06:57:12;12.07;;;5.93;;
68247;SDS011;55064;49.636;12.164;2024-02-16T06:59:38;19.47;;;9.03;;
68247;SDS011;55064;49.636;12.164;2024-02-16T07:02:03;18.73;;;8.27;;
68247;SDS011;55064;49.636;12.164;2024-02-16T07:04:28;19.83;;;10.10;;
68247;SDS011;55064;49.636;12.164;2024-02-16T07:06:54;25.93;;;14.73;;
68247;SDS011;55064;49.636;12.164;2024-02-16T07:09:19;28.57;;;15.17;;
68247;SDS011;55064;49.636;12.164;2024-02-16T07:11:47;23.92;;;12.10;;
68247;SDS011;55064;49.636;12.164;2024-02-16T07:14:15;12.60;;;6.70;;
68247;SDS011;55064;49.636;12.164;2024-02-16T07:16:40;25.57;;;9.30;;
68247;SDS011;55064;49.636;12.164;2024-02-16T07:19:06;29.10;;;12.02;;
68247;SDS011;55064;49.636;12.164;2024-02-16T07:21:31;19.07;;;8.40;;
68247;SDS011;55064;49.636;12.164;2024-02-16T07:23:57;13.33;;;6.00;;
68247;SDS011;55064;49.636;12.164;2024-02-16T07:26:22;14.97;;;8.67;;
68247;SDS011;55064;49.636;12.164;2024-02-16T07:28:48;14.70;;;7.80;;
68247;SDS011;55064;49.636;12.164;2024-02-16T07:31:13;13.63;;;7.07;;
68247;SDS011;55064;49.636;12.164;2024-02-16T07:33:39;9.88;;;4.95;;
68247;SDS011;55064;49.636;12.164;2024-02-16T07:36:05;12.53;;;5.57;;
68247;SDS011;55064;49.636;12.164;2024-02-16T07:38:31;12.65;;;5.30;;
68247;SDS011;55064;49.636;12.164;2024-02-16T07:41:09;10.75;;;5.38;;
68247;SDS011;55064;49.636;12.164;2024-02-16T07:43:34;12.57;;;5.70;;
68247;SDS011;55064;49.636;12.164;2024-02-16T07:46:00;10.97;;;5.53;;
68247;SDS011;55064;49.636;12.164;2024-02-16T07:48:25;11.77;;;5.83;;
68247;SDS011;55064;49.636;12.164;2024-02-16T07:50:50;11.90;;;5.07;;
68247;SDS011;55064;49.636;12.164;2024-02-16T07:53:16;9.37;;;4.83;;
68247;SDS011;55064;49.636;12.164;2024-02-16T07:55:41;9.70;;;4.63;;
68247;SDS011;55064;49.636;12.164;2024-02-16T07:58:07;11.32;;;5.78;;
68247;SDS011;55064;49.636;12.164;2024-02-16T08:00:32;11.83;;;5.60;;
68247;SDS011;55064;49.636;12.164;2024-02-16T08:02:58;12.87;;;5.33;;
68247;SDS011;55064;49.636;12.164;2024-02-16T08:05:24;12.45;;;6.38;;
68247;SDS011;55064;49.636;12.164;2024-02-16T08:07:50;11.88;;;6.45;;
68247;SDS011;55064;49.636;12.164;2024-02-16T08:10:18;12.83;;;6.47;;
68247;SDS011;55064;49.636;12.164;2024-02-16T08:12:45;12.15;;;6.28;;
68247;SDS011;55064;49.636;12.164;2024-02-16T08:15:11;12.32;;;6.50;;
68247;SDS011;55064;49.636;12.164;2024-02-16T08:17:37;12.73;;;6.13;;
68247;SDS011;55064;49.636;12.164;2024-02-16T08:20:05;12.00;;;6.40;;
68247;SDS011;55064;49.636;12.164;2024-02-16T08:22:31;12.88;;;6.10;;
68247;SDS011;55064;49.636;12.164;2024-02-16T08:24:57;13.40;;;6.57;;
68247;SDS011;55064;49.636;12.164;2024-02-16T08:27:23;12.37;;;6.97;;
68247;SDS011;55064;49.636;12.164;2024-02-16T08:29:49;12.65;;;6.63;;
68247;SDS011;55064;49.636;12.164;2024-02-16T08:32:16;13.82;;;7.18;;
68247;SDS011;55064;49.636;12.164;2024-02-16T08:34:42;12.77;;;6.07;;
68247;SDS011;55064;49.636;12.164;2024-02-16T08:37:07;14.60;;;6.70;;
68247;SDS011;55064;49.636;12.164;2024-02-16T08:39:33;13.13;;;6.20;;
68247;SDS011;55064;49.636;12.164;2024-02-16T08:41:59;12.48;;;6.38;;
68247;SDS011;55064;49.636;12.164;2024-02-16T08:44:25;12.07;;;6.13;;
68247;SDS011;55064;49.636;12.164;2024-02-16T08:46:51;12.35;;;6.55;;
68247;SDS011;55064;49.636;12.164;2024-02-16T08:49:17;12.05;;;6.03;;
68247;SDS011;55064;49.636;12.164;2024-02-16T08:51:42;14.20;;;7.33;;
68247;SDS011;55064;49.636;12.164;2024-02-16T08:54:08;13.60;;;6.32;;
68247;SDS011;55064;49.636;12.164;2024-02-16T08:56:34;12.40;;;5.97;;
68247;SDS011;55064;49.636;12.164;2024-02-16T08:59:01;11.88;;;5.97;;
68247;SDS011;55064;49.636;12.164;2024-02-16T09:01:33;13.80;;;6.53;;
68247;SDS011;55064;49.636;12.164;2024-02-16T09:03:59;11.97;;;6.13;;
68247;SDS011;55064;49.636;12.164;2024-02-16T09:06:25;11.75;;;6.10;;
68247;SDS011;55064;49.636;12.164;2024-02-16T09:08:51;10.93;;;5.70;;
68247;SDS011;55064;49.636;12.164;2024-02-16T09:11:16;13.37;;;6.73;;
68247;SDS011;55064;49.636;12.164;2024-02-16T09:13:42;12.60;;;6.90;;
68247;SDS011;55064;49.636;12.164;2024-02-16T09:16:08;14.77;;;6.70;;
68247;SDS011;55064;49.636;12.164;2024-02-16T09:18:33;13.50;;;6.50;;
68247;SDS011;55064;49.636;12.164;2024-02-16T09:20:59;11.88;;;6.03;;
68247;SDS011;55064;49.636;12.164;2024-02-16T09:23:25;11.47;;;5.93;;
68247;SDS011;55064;49.636;12.164;2024-02-16T09:25:51;12.80;;;6.25;;
68247;SDS011;55064;49.636;12.164;2024-02-16T09:28:16;11.43;;;5.40;;
68247;SDS011;55064;49.636;12.164;2024-02-16T09:30:44;11.88;;;6.13;;
68247;SDS011;55064;49.636;12.164;2024-02-16T09:33:09;10.63;;;6.07;;
68247;SDS011;55064;49.636;12.164;2024-02-16T09:35:35;10.90;;;6.13;;
68247;SDS011;55064;49.636;12.164;2024-02-16T09:38:00;10.63;;;5.73;;
68247;SDS011;55064;49.636;12.164;2024-02-16T09:40:26;11.10;;;5.00;;
68247;SDS011;55064;49.636;12.164;2024-02-16T09:42:51;10.52;;;5.45;;
68247;SDS011;55064;49.636;12.164;2024-02-16T09:45:17;8.97;;;4.90;;
68247;SDS011;55064;49.636;12.164;2024-02-16T09:47:43;10.48;;;4.60;;
68247;SDS011;55064;49.636;12.164;2024-02-16T09:50:11;6.70;;;2.90;;
68247;SDS011;55064;49.636;12.164;2024-02-16T09:52:37;6.87;;;3.00;;
68247;SDS011;55064;49.636;12.164;2024-02-16T09:55:03;6.95;;;3.08;;
68247;SDS011;55064;49.636;12.164;2024-02-16T09:57:32;6.90;;;2.88;;
68247;SDS011;55064;49.636;12.164;2024-02-16T09:59:57;6.73;;;2.87;;
68247;SDS011;55064;49.636;12.164;2024-02-16T10:02:24;7.30;;;2.95;;
68247;SDS011;55064;49.636;12.164;2024-02-16T10:04:49;6.47;;;2.87;;
68247;SDS011;55064;49.636;12.164;2024-02-16T10:07:15;6.70;;;3.00;;
68247;SDS011;55064;49.636;12.164;2024-02-16T10:09:40;7.10;;;3.00;;
68247;SDS011;55064;49.636;12.164;2024-02-16T10:12:06;7.50;;;2.50;;
68247;SDS011;55064;49.636;12.164;2024-02-16T10:14:32;6.50;;;2.43;;
68247;SDS011;55064;49.636;12.164;2024-02-16T10:17:01;6.45;;;2.50;;
68247;SDS011;55064;49.636;12.164;2024-02-16T10:19:28;6.65;;;2.65;;
68247;SDS011;55064;49.636;12.164;2024-02-16T10:22:07;9.13;;;3.00;;
68247;SDS011;55064;49.636;12.164;2024-02-16T10:24:34;6.47;;;2.70;;
68247;SDS011;55064;49.636;12.164;2024-02-16T10:26:59;5.90;;;2.42;;
68247;SDS011;55064;49.636;12.164;2024-02-16T10:29:24;7.20;;;2.67;;
68247;SDS011;55064;49.636;12.164;2024-02-16T10:31:52;8.18;;;2.97;;
68247;SDS011;55064;49.636;12.164;2024-02-16T10:34:17;6.93;;;2.77;;
68247;SDS011;55064;49.636;12.164;2024-02-16T10:36:45;6.80;;;2.70;;
68247;SDS011;55064;49.636;12.164;2024-02-16T10:39:11;6.90;;;3.00;;
68247;SDS011;55064;49.636;12.164;2024-02-16T10:41:40;6.97;;;2.70;;
68247;SDS011;55064;49.636;12.164;2024-02-16T10:44:07;6.10;;;2.75;;
68247;SDS011;55064;49.636;12.164;2024-02-16T10:46:32;8.73;;;2.80;;
68247;SDS011;55064;49.636;12.164;2024-02-16T10:48:59;5.73;;;2.40;;
68247;SDS011;55064;49.636;12.164;2024-02-16T10:51:29;6.50;;;2.50;;
68247;SDS011;55064;49.636;12.164;2024-02-16T10:53:56;6.20;;;2.60;;
68247;SDS011;55064;49.636;12.164;2024-02-16T10:56:31;7.93;;;3.03;;
68247;SDS011;55064;49.636;12.164;2024-02-16T10:58:59;8.27;;;3.17;;
68247;SDS011;55064;49.636;12.164;2024-02-16T11:01:31;9.03;;;3.10;;
68247;SDS011;55064;49.636;12.164;2024-02-16T11:04:02;9.98;;;3.22;;
68247;SDS011;55064;49.636;12.164;2024-02-16T11:06:28;9.40;;;2.92;;
68247;SDS011;55064;49.636;12.164;2024-02-16T11:08:54;5.90;;;2.73;;
68247;SDS011;55064;49.636;12.164;2024-02-16T11:11:23;6.80;;;2.90;;
68247;SDS011;55064;49.636;12.164;2024-02-16T11:13:48;7.60;;;2.72;;
68247;SDS011;55064;49.636;12.164;2024-02-16T11:16:14;8.47;;;3.23;;
68247;SDS011;55064;49.636;12.164;2024-02-16T11:18:42;7.43;;;3.33;;
68247;SDS011;55064;49.636;12.164;2024-02-16T11:21:15;6.82;;;2.80;;
68247;SDS011;55064;49.636;12.164;2024-02-16T11:23:41;6.38;;;2.60;;
68247;SDS011;55064;49.636;12.164;2024-02-16T11:26:10;7.07;;;2.83;;
68247;SDS011;55064;49.636;12.164;2024-02-16T11:28:37;8.73;;;3.40;;
68247;SDS011;55064;49.636;12.164;2024-02-16T11:31:05;6.15;;;2.60;;
68247;SDS011;55064;49.636;12.164;2024-02-16T11:33:32;7.07;;;2.80;;
68247;SDS011;55064;49.636;12.164;2024-02-16T11:35:58;8.23;;;2.80;;
68247;SDS011;55064;49.636;12.164;2024-02-16T11:38:25;7.32;;;2.30;;
68247;SDS011;55064;49.636;12.164;2024-02-16T11:43:27;8.75;;;2.55;;
68247;SDS011;55064;49.636;12.164;2024-02-16T11:45:52;7.13;;;2.80;;
68247;SDS011;55064;49.636;12.164;2024-02-16T11:48:19;7.85;;;2.85;;
68247;SDS011;55064;49.636;12.164;2024-02-16T11:50:47;8.23;;;2.75;;
68247;SDS011;55064;49.636;12.164;2024-02-16T11:53:19;7.53;;;2.50;;
68247;SDS011;55064;49.636;12.164;2024-02-16T11:55:48;6.72;;;2.92;;
68247;SDS011;55064;49.636;12.164;2024-02-16T11:58:17;6.38;;;2.25;;
68247;SDS011;55064;49.636;12.164;2024-02-16T12:00:46;5.85;;;2.60;;
68247;SDS011;55064;49.636;12.164;2024-02-16T12:03:22;10.43;;;2.97;;
68247;SDS011;55064;49.636;12.164;2024-02-16T12:05:49;9.23;;;3.30;;
68247;SDS011;55064;49.636;12.164;2024-02-16T12:08:19;7.00;;;2.85;;
68247;SDS011;55064;49.636;12.164;2024-02-16T12:10:45;7.90;;;3.30;;
68247;SDS011;55064;49.636;12.164;2024-02-16T12:13:12;6.43;;;3.05;;
68247;SDS011;55064;49.636;12.164;2024-02-16T12:15:37;8.13;;;3.60;;
68247;SDS011;55064;49.636;12.164;2024-02-16T12:18:03;6.70;;;3.33;;
68247;SDS011;55064;49.636;12.164;2024-02-16T12:20:29;6.33;;;3.00;;
68247;SDS011;55064;49.636;12.164;2024-02-16T12:22:56;7.97;;;3.30;;
68247;SDS011;55064;49.636;12.164;2024-02-16T12:25:24;7.97;;;3.58;;
68247;SDS011;55064;49.636;12.164;2024-02-16T12:27:49;7.07;;;3.47;;
68247;SDS011;55064;49.636;12.164;2024-02-16T12:30:15;6.63;;;3.17;;
68247;SDS011;55064;49.636;12.164;2024-02-16T12:32:41;10.45;;;3.22;;
68247;SDS011;55064;49.636;12.164;2024-02-16T12:35:06;7.77;;;3.50;;
68247;SDS011;55064;49.636;12.164;2024-02-16T12:37:32;7.45;;;3.30;;
68247;SDS011;55064;49.636;12.164;2024-02-16T12:39:58;7.95;;;3.80;;
68247;SDS011;55064;49.636;12.164;2024-02-16T12:42:24;8.50;;;3.30;;
68247;SDS011;55064;49.636;12.164;2024-02-16T12:44:49;7.87;;;3.37;;
68247;SDS011;55064;49.636;12.164;2024-02-16T12:47:14;8.02;;;3.30;;
68247;SDS011;55064;49.636;12.164;2024-02-16T12:49:40;7.80;;;3.23;;
68247;SDS011;55064;49.636;12.164;2024-02-16T12:52:05;8.40;;;3.60;;
68247;SDS011;55064;49.636;12.164;2024-02-16T12:54:31;7.53;;;3.53;;
68247;SDS011;55064;49.636;12.164;2024-02-16T12:56:58;7.10;;;3.05;;
68247;SDS011;55064;49.636;12.164;2024-02-16T12:59:23;9.20;;;3.53;;
68247;SDS011;55064;49.636;12.164;2024-02-16T13:01:48;9.57;;;4.10;;
68247;SDS011;55064;49.636;12.164;2024-02-16T13:04:15;9.57;;;3.30;;
68247;SDS011;55064;49.636;12.164;2024-02-16T13:06:46;9.07;;;3.38;;
68247;SDS011;55064;49.636;12.164;2024-02-16T13:09:11;6.63;;;3.40;;
68247;SDS011;55064;49.636;12.164;2024-02-16T13:11:37;8.02;;;3.70;;
68247;SDS011;55064;49.636;12.164;2024-02-16T13:14:04;8.60;;;3.95;;
68247;SDS011;55064;49.636;12.164;2024-02-16T13:16:30;8.07;;;4.00;;
68247;SDS011;55064;49.636;12.164;2024-02-16T13:18:55;8.23;;;3.67;;
68247;SDS011;55064;49.636;12.164;2024-02-16T13:21:21;7.70;;;3.30;;
68247;SDS011;55064;49.636;12.164;2024-02-16T13:23:46;7.53;;;3.50;;
68247;SDS011;55064;49.636;12.164;2024-02-16T13:26:12;8.35;;;3.90;;
68247;SDS011;55064;49.636;12.164;2024-02-16T13:28:38;8.90;;;3.93;;
68247;SDS011;55064;49.636;12.164;2024-02-16T13:31:03;8.20;;;3.80;;
68247;SDS011;55064;49.636;12.164;2024-02-16T13:33:29;8.77;;;3.70;;
68247;SDS011;55064;49.636;12.164;2024-02-16T13:35:54;10.97;;;3.83;;
68247;SDS011;55064;49.636;12.164;2024-02-16T13:38:19;8.50;;;3.63;;
68247;SDS011;55064;49.636;12.164;2024-02-16T13:40:45;8.97;;;3.67;;
68247;SDS011;55064;49.636;12.164;2024-02-16T13:43:10;9.30;;;3.40;;
68247;SDS011;55064;49.636;12.164;2024-02-16T13:45:49;8.40;;;3.80;;
68247;SDS011;55064;49.636;12.164;2024-02-16T13:48:16;9.15;;;3.60;;
68247;SDS011;55064;49.636;12.164;2024-02-16T13:50:46;7.00;;;3.30;;
68247;SDS011;55064;49.636;12.164;2024-02-16T13:53:12;8.90;;;3.47;;
68247;SDS011;55064;49.636;12.164;2024-02-16T13:55:39;8.27;;;3.75;;
68247;SDS011;55064;49.636;12.164;2024-02-16T13:58:04;7.20;;;3.30;;
68247;SDS011;55064;49.636;12.164;2024-02-16T14:00:29;6.90;;;3.05;;
68247;SDS011;55064;49.636;12.164;2024-02-16T14:02:55;8.17;;;3.30;;
68247;SDS011;55064;49.636;12.164;2024-02-16T14:05:20;7.37;;;3.43;;
68247;SDS011;55064;49.636;12.164;2024-02-16T14:07:47;8.57;;;3.53;;
68247;SDS011;55064;49.636;12.164;2024-02-16T14:10:13;8.73;;;3.90;;
68247;SDS011;55064;49.636;12.164;2024-02-16T14:12:39;7.87;;;3.30;;
68247;SDS011;55064;49.636;12.164;2024-02-16T14:15:04;8.10;;;3.50;;
68247;SDS011;55064;49.636;12.164;2024-02-16T14:17:30;7.18;;;3.50;;
68247;SDS011;55064;49.636;12.164;2024-02-16T14:19:55;7.90;;;3.10;;
68247;SDS011;55064;49.636;12.164;2024-02-16T14:22:21;7.37;;;3.20;;
68247;SDS011;55064;49.636;12.164;2024-02-16T14:24:46;9.30;;;4.00;;